createdAt,value
2023-05-01T00:02:10.109Z,14.14
2023-05-01T00:05:12.830Z,14.11
2023-05-01T00:08:16.044Z,14.08
2023-05-01T00:11:18.845Z,14.06
2023-05-01T00:14:21.648Z,14.04
2023-05-01T00:17:24.326Z,13.99
2023-05-01T00:20:28.122Z,13.97
2023-05-01T00:23:31.087Z,13.93
2023-05-01T00:26:33.898Z,13.91
2023-05-01T00:29:36.544Z,13.92
2023-05-01T00:32:39.173Z,13.89
2023-05-01T00:35:44.017Z,13.92
2023-05-01T00:38:46.970Z,13.88
2023-05-01T00:41:49.565Z,13.96
2023-05-01T00:44:52.157Z,13.83
2023-05-01T00:47:54.760Z,13.78
2023-05-01T00:50:58.440Z,13.77
2023-05-01T00:54:01.727Z,13.77
2023-05-01T00:57:04.965Z,13.78
2023-05-01T01:00:11.249Z,13.76
2023-05-01T01:03:13.961Z,13.74
2023-05-01T01:06:19.679Z,13.74
2023-05-01T01:09:41.118Z,13.70
2023-05-01T01:12:43.677Z,13.68
2023-05-01T01:15:51.073Z,13.65
2023-05-01T01:19:00.721Z,13.63
2023-05-01T01:22:08.132Z,13.60
2023-05-01T01:25:29.991Z,13.60
2023-05-01T01:28:52.452Z,13.59
2023-05-01T01:32:01.817Z,13.57
2023-05-01T01:35:12.837Z,13.54
2023-05-01T01:38:22.738Z,13.49
2023-05-01T01:41:30.374Z,13.45
2023-05-01T01:45:03.049Z,13.42
2023-05-01T01:48:07.365Z,13.41
2023-05-01T01:51:13.211Z,13.40
2023-05-01T01:54:19.379Z,13.39
2023-05-01T01:57:23.875Z,13.40
2023-05-01T02:00:28.558Z,13.40
2023-05-01T02:03:31.831Z,13.40
2023-05-01T02:06:35.194Z,13.37
2023-05-01T02:09:38.554Z,13.36
2023-05-01T02:12:42.970Z,13.32
2023-05-01T02:15:46.000Z,13.42
2023-05-01T02:18:49.802Z,13.36
2023-05-01T02:21:53.949Z,13.35
2023-05-01T02:24:58.862Z,13.26
2023-05-01T02:28:02.733Z,13.27
2023-05-01T02:31:06.333Z,13.10
2023-05-01T02:34:09.181Z,13.10
2023-05-01T02:37:12.276Z,13.10
2023-05-01T02:40:15.678Z,13.13
2023-05-01T02:43:21.139Z,13.00
2023-05-01T02:46:26.224Z,12.99
2023-05-01T02:49:30.526Z,12.99
2023-05-01T02:52:33.114Z,12.91
2023-05-01T02:55:36.739Z,12.96
2023-05-01T02:58:39.113Z,12.90
2023-05-01T03:01:42.189Z,12.97
2023-05-01T03:04:44.718Z,13.00
2023-05-01T03:07:48.442Z,12.91
2023-05-01T03:10:50.742Z,12.91
2023-05-01T03:13:53.800Z,12.91
2023-05-01T03:16:56.731Z,13.03
2023-05-01T03:19:59.683Z,12.95
2023-05-01T03:23:02.358Z,12.94
2023-05-01T03:26:05.551Z,12.95
2023-05-01T03:29:08.571Z,13.05
2023-05-01T03:32:11.841Z,13.02
2023-05-01T03:35:15.237Z,13.02
2023-05-01T03:38:18.102Z,13.03
2023-05-01T03:41:22.227Z,13.14
2023-05-01T03:44:26.884Z,13.06
2023-05-01T03:47:29.861Z,13.06
2023-05-01T03:50:33.123Z,13.01
2023-05-01T03:53:36.765Z,13.13
2023-05-01T03:56:40.005Z,13.06
2023-05-01T03:59:43.824Z,13.01
2023-05-01T04:02:47.491Z,13.03
2023-05-01T04:05:50.461Z,13.06
2023-05-01T04:08:53.045Z,13.02
2023-05-01T04:11:58.607Z,13.02
2023-05-01T04:15:01.388Z,13.01
2023-05-01T04:18:04.167Z,12.92
2023-05-01T04:21:07.542Z,12.89
2023-05-01T04:24:13.851Z,12.91
2023-05-01T04:27:16.476Z,12.90
2023-05-01T04:30:20.169Z,12.88
2023-05-01T04:33:23.629Z,12.95
2023-05-01T04:36:26.233Z,12.99
2023-05-01T04:39:28.796Z,12.94
2023-05-01T04:42:32.605Z,12.89
2023-05-01T04:45:35.425Z,12.88
2023-05-01T04:48:38.109Z,12.97
2023-05-01T04:51:41.298Z,13.06
2023-05-01T04:54:44.956Z,13.03
2023-05-01T04:57:47.559Z,12.90
2023-05-01T05:00:50.536Z,12.88
2023-05-01T05:03:54.307Z,12.87
2023-05-01T05:06:57.057Z,13.00
2023-05-01T05:10:01.378Z,12.97
2023-05-01T05:13:04.302Z,12.95
2023-05-01T05:16:07.435Z,12.99
2023-05-01T05:19:10.068Z,13.10
2023-05-01T05:22:13.071Z,13.06
2023-05-01T05:25:18.162Z,13.11
2023-05-01T05:28:20.900Z,13.32
2023-05-01T05:31:23.731Z,13.30
2023-05-01T05:34:26.588Z,13.36
2023-05-01T05:37:29.364Z,13.45
2023-05-01T05:40:32.214Z,13.46
2023-05-01T05:43:34.840Z,13.62
2023-05-01T05:46:37.592Z,13.46
2023-05-01T05:49:40.553Z,13.53
2023-05-01T05:52:43.153Z,13.49
2023-05-01T05:55:48.769Z,13.61
2023-05-01T05:58:51.417Z,13.66
2023-05-01T06:01:54.649Z,13.85
2023-05-01T06:04:57.974Z,13.92
2023-05-01T06:08:02.582Z,13.90
2023-05-01T06:11:05.583Z,13.93
2023-05-01T06:14:07.901Z,14.00
2023-05-01T06:17:10.964Z,14.31
2023-05-01T06:20:14.336Z,14.37
2023-05-01T06:23:17.539Z,14.34
2023-05-01T06:26:21.613Z,14.45
2023-05-01T06:29:25.140Z,14.63
2023-05-01T06:32:28.372Z,14.80
2023-05-01T06:35:31.825Z,14.94
2023-05-01T06:38:35.371Z,15.21
2023-05-01T06:41:38.771Z,15.38
2023-05-01T06:44:41.570Z,15.38
2023-05-01T06:47:44.553Z,15.57
2023-05-01T06:50:46.830Z,15.76
2023-05-01T06:53:49.762Z,15.89
2023-05-01T06:56:55.217Z,16.04
2023-05-01T06:59:58.525Z,16.33
2023-05-01T07:03:03.197Z,16.30
2023-05-01T07:06:06.239Z,16.51
2023-05-01T07:09:08.664Z,16.84
2023-05-01T07:12:11.518Z,17.00
2023-05-01T07:15:16.799Z,17.09
2023-05-01T07:18:19.637Z,17.21
2023-05-01T07:21:21.946Z,17.37
2023-05-01T07:24:25.079Z,17.72
2023-05-01T07:27:28.913Z,17.93
2023-05-01T07:30:33.160Z,18.07
2023-05-01T07:33:35.497Z,18.21
2023-05-01T07:36:38.688Z,18.33
2023-05-01T07:39:41.075Z,18.49
2023-05-01T07:42:43.972Z,18.60
2023-05-01T07:46:00.408Z,18.75
2023-05-01T07:49:04.317Z,18.92
2023-05-01T07:52:09.611Z,19.22
2023-05-01T07:55:12.962Z,19.41
2023-05-01T07:58:15.533Z,19.51
2023-05-01T08:01:18.591Z,19.69
2023-05-01T08:04:23.408Z,19.98
2023-05-01T08:07:26.232Z,20.42
2023-05-01T08:10:28.991Z,20.91
2023-05-01T08:13:32.195Z,21.14
2023-05-01T08:16:35.437Z,21.46
2023-05-01T08:19:37.996Z,21.45
2023-05-01T08:22:40.666Z,21.65
2023-05-01T08:25:43.537Z,22.24
2023-05-01T08:28:46.255Z,22.70
2023-05-01T08:31:48.849Z,23.06
2023-05-01T08:34:51.593Z,23.37
2023-05-01T08:37:54.505Z,23.68
2023-05-01T08:40:58.893Z,24.23
2023-05-01T08:44:01.775Z,24.59
2023-05-01T08:47:17.485Z,24.95
2023-05-01T08:50:22.703Z,25.24
2023-05-01T08:53:28.964Z,25.28
2023-05-01T08:56:31.763Z,25.47
2023-05-01T08:59:35.096Z,25.88
2023-05-01T09:02:38.974Z,26.12
2023-05-01T09:05:41.620Z,26.47
2023-05-01T09:08:44.240Z,26.55
2023-05-01T09:11:46.970Z,26.82
2023-05-01T09:14:50.326Z,27.14
2023-05-01T09:17:53.552Z,27.43
2023-05-01T09:20:56.258Z,27.82
2023-05-01T09:23:59.080Z,28.02
2023-05-01T09:27:01.813Z,28.15
2023-05-01T09:30:09.033Z,28.33
2023-05-01T09:33:12.802Z,28.63
2023-05-01T09:36:17.433Z,28.91
2023-05-01T09:39:22.851Z,28.42
2023-05-01T09:42:25.518Z,28.51
2023-05-01T09:45:28.189Z,28.81
2023-05-01T09:48:33.384Z,29.19
2023-05-01T09:51:38.067Z,29.27
2023-05-01T09:54:41.393Z,29.49
2023-05-01T09:57:45.394Z,29.61
2023-05-01T10:00:51.595Z,29.64
2023-05-01T10:03:55.074Z,29.19
2023-05-01T10:06:58.024Z,28.98
2023-05-01T10:10:19.950Z,28.69
2023-05-01T10:13:22.576Z,28.64
2023-05-01T10:16:29.631Z,28.49
2023-05-01T10:19:32.470Z,28.63
2023-05-01T10:22:35.302Z,28.69
2023-05-01T10:25:38.895Z,28.83
2023-05-01T10:28:41.847Z,29.30
2023-05-01T10:31:44.500Z,29.43
2023-05-01T10:34:52.700Z,29.54
2023-05-01T10:38:06.290Z,29.92
2023-05-01T10:41:09.451Z,29.72
2023-05-01T10:44:23.206Z,29.57
2023-05-01T10:47:30.699Z,29.42
2023-05-01T10:50:34.272Z,29.57
2023-05-01T10:53:37.652Z,29.25
2023-05-01T10:56:41.633Z,29.41
2023-05-01T11:00:13.802Z,29.23
2023-05-01T11:03:22.285Z,28.93
2023-05-01T11:06:25.445Z,28.48
2023-05-01T11:09:38.582Z,28.67
2023-05-01T11:12:47.378Z,28.76
2023-05-01T11:15:50.067Z,28.94
2023-05-01T11:18:52.688Z,29.49
2023-05-01T11:25:19.101Z,29.85
2023-05-01T11:28:21.836Z,29.99
2023-05-01T11:31:26.585Z,29.91
2023-05-01T11:34:34.908Z,29.84
2023-05-01T11:37:44.614Z,29.87
2023-05-01T11:40:54.069Z,29.37
2023-05-01T11:43:59.594Z,29.26
2023-05-01T11:47:02.290Z,29.20
2023-05-01T11:50:06.054Z,28.97
2023-05-01T11:53:13.030Z,29.11
2023-05-01T11:56:25.972Z,28.93
2023-05-01T11:59:30.602Z,28.81
2023-05-01T12:02:34.966Z,28.69
2023-05-01T12:05:39.200Z,28.95
2023-05-01T12:08:43.409Z,28.96
2023-05-01T12:11:47.398Z,28.75
2023-05-01T12:14:50.351Z,28.70
2023-05-01T12:17:53.420Z,28.43
2023-05-01T12:20:56.163Z,28.27
2023-05-01T12:24:12.435Z,28.46
2023-05-01T12:27:14.992Z,28.05
2023-05-01T12:30:24.675Z,27.98
2023-05-01T12:33:27.256Z,27.98
2023-05-01T12:36:31.753Z,27.40
2023-05-01T12:39:42.557Z,27.15
2023-05-01T12:42:53.936Z,27.27
2023-05-01T12:45:56.689Z,27.59
2023-05-01T12:49:01.950Z,27.72
2023-05-01T12:52:06.305Z,27.69
2023-05-01T12:55:09.437Z,27.77
2023-05-01T12:58:12.215Z,27.34
2023-05-01T13:01:23.277Z,27.15
2023-05-01T13:04:26.638Z,27.07
2023-05-01T13:07:29.369Z,26.97
2023-05-01T13:10:32.486Z,27.17
2023-05-01T13:13:36.061Z,26.91
2023-05-01T13:16:46.467Z,27.07
2023-05-01T13:19:58.247Z,26.68
2023-05-01T13:23:09.709Z,26.76
2023-05-01T13:26:12.394Z,26.61
2023-05-01T13:29:15.742Z,26.59
2023-05-01T13:32:18.432Z,26.65
2023-05-01T13:35:27.255Z,26.57
2023-05-01T13:38:30.816Z,26.12
2023-05-01T13:41:35.161Z,26.06
2023-05-01T13:44:44.734Z,25.84
2023-05-01T13:47:49.565Z,25.65
2023-05-01T13:50:52.292Z,25.58
2023-05-01T13:53:56.318Z,25.53
2023-05-01T13:57:00.722Z,25.48
2023-05-01T14:00:04.971Z,25.39
2023-05-01T14:03:15.776Z,25.19
2023-05-01T14:06:19.962Z,24.97
2023-05-01T14:09:23.049Z,24.90
2023-05-01T14:12:34.996Z,24.73
2023-05-01T14:15:43.771Z,24.59
2023-05-01T14:18:47.951Z,24.52
2023-05-01T14:21:50.653Z,24.27
2023-05-01T14:24:53.876Z,24.09
2023-05-01T14:27:56.943Z,23.98
2023-05-01T14:30:59.882Z,23.91
2023-05-01T14:34:04.336Z,23.78
2023-05-01T14:37:07.293Z,23.52
2023-05-01T14:40:12.538Z,23.38
2023-05-01T14:43:18.894Z,23.22
2023-05-01T14:46:31.727Z,23.20
2023-05-01T14:49:35.913Z,22.99
2023-05-01T14:52:39.236Z,22.83
2023-05-01T14:55:42.260Z,22.65
2023-05-01T14:58:44.685Z,22.53
2023-05-01T15:01:47.668Z,22.70
2023-05-01T15:04:50.054Z,22.62
2023-05-01T15:08:00.595Z,22.64
2023-05-01T15:11:02.957Z,22.48
2023-05-01T15:14:06.476Z,22.37
2023-05-01T15:17:08.904Z,22.28
2023-05-01T15:20:12.932Z,22.33
2023-05-01T15:23:15.295Z,22.13
2023-05-01T15:26:18.308Z,22.11
2023-05-01T15:29:20.552Z,22.02
2023-05-01T15:32:24.200Z,21.86
2023-05-01T15:35:26.860Z,21.78
2023-05-01T15:38:30.283Z,21.76
2023-05-01T15:41:32.607Z,21.77
2023-05-01T15:44:35.512Z,21.67
2023-05-01T15:47:44.084Z,21.56
2023-05-01T15:50:48.986Z,21.54
2023-05-01T15:53:51.790Z,21.56
2023-05-01T15:56:55.511Z,21.49
2023-05-01T15:59:58.521Z,21.44
2023-05-01T16:03:03.097Z,21.38
2023-05-01T16:06:06.313Z,21.31
2023-05-01T16:09:09.283Z,21.36
2023-05-01T16:12:12.262Z,21.16
2023-05-01T16:15:14.993Z,21.12
2023-05-01T16:18:19.571Z,20.98
2023-05-01T16:21:22.905Z,20.88
2023-05-01T16:24:26.269Z,20.83
2023-05-01T16:27:29.260Z,20.78
2023-05-01T16:30:31.891Z,20.77
2023-05-01T16:33:34.570Z,20.70
2023-05-01T16:36:42.438Z,20.66
2023-05-01T16:39:45.201Z,20.63
2023-05-01T16:42:52.138Z,20.54
2023-05-01T16:45:56.114Z,20.58
2023-05-01T16:48:58.887Z,20.47
2023-05-01T16:52:03.881Z,20.43
2023-05-01T16:55:07.209Z,20.41
2023-05-01T16:58:09.833Z,20.37
2023-05-01T17:01:13.562Z,20.34
2023-05-01T17:04:16.849Z,20.24
2023-05-01T17:07:22.739Z,20.18
2023-05-01T17:10:25.394Z,20.12
2023-05-01T17:13:28.110Z,20.06
2023-05-01T17:16:32.422Z,20.10
2023-05-01T17:19:35.479Z,19.99
2023-05-01T17:22:38.039Z,19.93
2023-05-01T17:25:40.737Z,19.86
2023-05-01T17:28:46.229Z,19.81
2023-05-01T17:31:49.307Z,19.71
2023-05-01T17:34:52.414Z,19.84
2023-05-01T17:37:55.302Z,19.62
2023-05-01T17:40:58.482Z,19.52
2023-05-01T17:44:01.461Z,19.43
2023-05-01T17:47:04.245Z,19.34
2023-05-01T17:50:08.303Z,19.27
2023-05-01T17:53:10.946Z,19.22
2023-05-01T17:56:13.658Z,19.13
2023-05-01T17:59:17.365Z,19.05
2023-05-01T18:02:20.099Z,18.99
2023-05-01T18:05:23.115Z,18.96
2023-05-01T18:08:25.470Z,18.88
2023-05-01T18:11:28.814Z,18.82
2023-05-01T18:14:31.312Z,18.76
2023-05-01T18:17:34.377Z,18.73
2023-05-01T18:20:37.110Z,18.78
2023-05-01T18:23:42.154Z,18.66
2023-05-01T18:26:44.475Z,18.58
2023-05-01T18:29:47.628Z,18.51
2023-05-01T18:32:50.153Z,18.50
2023-05-01T18:35:53.148Z,18.43
2023-05-01T18:38:56.164Z,18.41
2023-05-01T18:41:59.260Z,18.34
2023-05-01T18:45:02.032Z,18.28
2023-05-01T18:48:05.376Z,18.24
2023-05-01T18:51:09.537Z,18.20
2023-05-01T18:54:12.832Z,18.14
2023-05-01T18:57:15.181Z,18.12
2023-05-01T19:00:18.120Z,18.09
2023-05-01T19:03:20.515Z,18.07
2023-05-01T19:06:23.473Z,18.02
2023-05-01T19:09:25.857Z,17.99
2023-05-01T19:12:30.956Z,17.96
2023-05-01T19:15:33.503Z,17.92
2023-05-01T19:18:38.275Z,17.90
2023-05-01T19:21:40.636Z,17.86
2023-05-01T19:24:43.596Z,17.83
2023-05-01T19:27:46.031Z,17.82
2023-05-01T19:30:49.019Z,17.78
2023-05-01T19:33:53.690Z,17.76
2023-05-01T19:37:01.982Z,17.71
2023-05-01T19:40:06.386Z,17.72
2023-05-01T19:43:13.411Z,17.69
2023-05-01T19:46:16.215Z,17.65
2023-05-01T19:49:19.242Z,17.56
2023-05-01T19:52:21.596Z,17.52
2023-05-01T19:55:24.484Z,17.48
2023-05-01T19:58:27.711Z,17.46
2023-05-01T20:01:31.479Z,17.44
2023-05-01T20:04:34.354Z,17.41
2023-05-01T20:07:37.290Z,17.35
2023-05-01T20:10:39.970Z,17.35
2023-05-01T20:13:46.032Z,17.30
2023-05-01T20:16:50.839Z,17.28
2023-05-01T20:19:53.689Z,17.25
2023-05-01T20:23:09.425Z,17.28
2023-05-01T20:26:12.100Z,17.23
2023-05-01T20:29:15.505Z,17.16
2023-05-01T20:32:18.148Z,17.11
2023-05-01T20:35:21.053Z,17.10
2023-05-01T20:38:24.278Z,17.04
2023-05-01T20:41:29.122Z,17.01
2023-05-01T20:44:32.623Z,16.98
2023-05-01T20:47:35.493Z,16.93
2023-05-01T20:50:38.228Z,16.91
2023-05-01T20:53:41.349Z,16.87
2023-05-01T20:56:43.886Z,16.83
2023-05-01T20:59:47.915Z,16.80
2023-05-01T21:02:51.948Z,16.77
2023-05-01T21:05:58.738Z,16.75
2023-05-01T21:09:01.700Z,16.71
2023-05-01T21:12:06.149Z,16.72
2023-05-01T21:15:09.540Z,16.64
2023-05-01T21:18:13.791Z,16.62
2023-05-01T21:21:16.364Z,16.64
2023-05-01T21:24:25.594Z,16.60
2023-05-01T21:27:28.358Z,16.55
2023-05-01T21:30:33.345Z,16.55
2023-05-01T21:33:36.519Z,16.59
2023-05-01T21:36:44.986Z,16.49
2023-05-01T21:39:47.799Z,16.47
2023-05-01T21:42:52.242Z,16.48
2023-05-01T21:45:54.888Z,16.47
2023-05-01T21:48:57.591Z,16.47
2023-05-01T21:52:00.772Z,16.47
2023-05-01T21:55:07.084Z,16.44
2023-05-01T21:58:09.711Z,16.42
2023-05-01T22:01:13.585Z,16.42
2023-05-01T22:04:17.919Z,16.42
2023-05-01T22:07:20.347Z,16.41
2023-05-01T22:10:24.043Z,16.40
2023-05-01T22:13:33.184Z,16.38
2023-05-01T22:16:36.190Z,16.39
2023-05-01T22:19:41.360Z,16.38
2023-05-01T22:22:44.333Z,16.35
2023-05-01T22:25:46.606Z,16.34
2023-05-01T22:28:50.081Z,16.34
2023-05-01T22:31:52.638Z,16.32
2023-05-01T22:34:55.666Z,16.28
2023-05-01T22:37:58.201Z,16.23
2023-05-01T22:41:01.191Z,16.24
2023-05-01T22:44:05.845Z,16.19
2023-05-01T22:47:08.766Z,16.17
2023-05-01T22:50:11.403Z,16.17
2023-05-01T22:53:14.475Z,16.15
2023-05-01T22:56:17.064Z,16.12
2023-05-01T22:59:21.690Z,16.12
2023-05-01T23:02:24.361Z,16.08
2023-05-01T23:05:27.419Z,16.05
2023-05-01T23:08:29.729Z,15.99
2023-05-01T23:11:33.076Z,15.95
2023-05-01T23:14:41.829Z,15.92
2023-05-01T23:17:45.754Z,15.89
2023-05-01T23:20:49.822Z,15.88
2023-05-01T23:23:52.709Z,15.86
2023-05-01T23:26:55.033Z,15.79
2023-05-01T23:29:59.070Z,15.65
2023-05-01T23:33:01.733Z,15.62
2023-05-01T23:36:05.683Z,15.61
2023-05-01T23:39:07.958Z,15.61
2023-05-01T23:42:10.870Z,15.53
2023-05-01T23:45:13.217Z,15.52
2023-05-01T23:48:16.232Z,15.43
2023-05-01T23:51:18.728Z,15.43
2023-05-01T23:54:21.535Z,15.45
2023-05-01T23:57:23.899Z,15.49
